createdAt,value
2023-01-10T00:06:35.457Z,72.40
2023-01-10T00:14:40.903Z,71.90
2023-01-10T00:22:49.545Z,71.40
2023-01-10T00:31:04.554Z,72.10
2023-01-10T00:39:15.404Z,72.60
2023-01-10T00:47:20.893Z,72.10
2023-01-10T00:55:28.943Z,71.60
2023-01-10T01:03:34.309Z,71.50
2023-01-10T01:11:44.582Z,70.10
2023-01-10T01:19:52.114Z,70.40
2023-01-10T01:28:00.133Z,70.10
2023-01-10T01:36:05.509Z,69.40
2023-01-10T01:44:18.538Z,68.40
2023-01-10T01:52:37.456Z,68.40
2023-01-10T02:00:45.747Z,69.60
2023-01-10T02:08:56.598Z,69.30
2023-01-10T02:17:04.527Z,67.30
2023-01-10T02:25:57.341Z,67.70
2023-01-10T02:34:11.213Z,68.80
2023-01-10T02:42:22.243Z,68.70
2023-01-10T02:50:48.589Z,68.20
2023-01-10T02:59:23.468Z,68.40
2023-01-10T03:07:37.383Z,68.10
2023-01-10T03:15:45.445Z,69.00
2023-01-10T03:23:59.400Z,69.30
2023-01-10T03:32:10.375Z,69.70
2023-01-10T03:40:30.759Z,69.40
2023-01-10T03:48:44.460Z,69.00
2023-01-10T03:56:54.052Z,68.20
2023-01-10T04:05:02.542Z,68.40
2023-01-10T04:13:10.802Z,68.80
2023-01-10T04:21:16.055Z,69.50
2023-01-10T04:29:24.149Z,68.80
2023-01-10T04:37:29.636Z,70.00
2023-01-10T04:45:37.667Z,70.50
2023-01-10T04:53:43.359Z,71.00
2023-01-10T05:01:51.668Z,72.00
2023-01-10T05:09:57.228Z,72.10
2023-01-10T05:18:05.277Z,72.60
2023-01-10T05:26:12.143Z,73.10
2023-01-10T05:34:20.134Z,74.30
2023-01-10T05:42:25.872Z,74.20
2023-01-10T05:50:35.112Z,75.90
2023-01-10T05:58:40.791Z,75.20
2023-01-10T06:06:52.202Z,74.00
2023-01-10T06:14:57.592Z,73.60
2023-01-10T06:23:05.950Z,74.80
2023-01-10T06:31:11.556Z,75.30
2023-01-10T06:39:19.588Z,75.50
2023-01-10T06:47:26.690Z,76.60
2023-01-10T06:55:39.172Z,76.80
2023-01-10T07:03:44.835Z,75.80
2023-01-10T07:11:54.548Z,75.70
2023-01-10T07:19:59.845Z,74.50
2023-01-10T07:28:11.239Z,75.30
2023-01-10T07:36:17.437Z,74.60
2023-01-10T07:44:25.817Z,73.50
2023-01-10T07:52:31.231Z,74.00
2023-01-10T08:00:42.013Z,74.00
2023-01-10T08:08:50.048Z,73.80
2023-01-10T08:16:58.245Z,73.50
2023-01-10T08:25:05.409Z,72.80
2023-01-10T08:33:19.373Z,72.10
2023-01-10T08:41:25.891Z,73.10
2023-01-10T08:49:35.239Z,73.00
2023-01-10T08:57:40.937Z,72.60
2023-01-10T09:05:49.823Z,73.40
2023-01-10T09:13:57.528Z,76.80
2023-01-10T09:22:07.029Z,77.80
2023-01-10T09:30:14.167Z,79.50
2023-01-10T09:38:23.173Z,79.40
2023-01-10T09:46:40.998Z,77.30
2023-01-10T09:54:53.065Z,79.40
2023-01-10T10:02:59.106Z,78.00
2023-01-10T10:11:34.254Z,77.40
2023-01-10T10:19:57.951Z,78.60
2023-01-10T10:28:22.648Z,76.70
2023-01-10T10:36:34.100Z,80.70
2023-01-10T10:44:46.673Z,79.30
2023-01-10T10:52:52.829Z,78.80
2023-01-10T11:01:02.125Z,79.80
2023-01-10T11:09:09.669Z,78.70
2023-01-10T11:17:27.252Z,79.20
2023-01-10T11:25:33.392Z,78.80
2023-01-10T11:33:42.071Z,78.10
2023-01-10T11:41:49.417Z,78.00
2023-01-10T11:49:59.010Z,79.60
2023-01-10T11:58:08.783Z,79.30
2023-01-10T12:06:20.624Z,79.20
2023-01-10T12:14:25.949Z,78.50
2023-01-10T12:22:37.290Z,78.40
2023-01-10T12:30:50.165Z,78.10
2023-01-10T12:39:06.606Z,78.20
2023-01-10T12:47:22.384Z,78.10
2023-01-10T12:55:33.992Z,78.30
2023-01-10T13:03:40.488Z,78.60
2023-01-10T13:11:55.829Z,78.80
2023-01-10T13:20:37.755Z,79.20
2023-01-10T13:28:57.959Z,79.70
2023-01-10T13:37:07.892Z,79.90
2023-01-10T13:45:36.575Z,80.20
2023-01-10T13:54:01.981Z,81.00
2023-01-10T14:02:33.088Z,80.60
2023-01-10T14:10:38.450Z,80.30
2023-01-10T14:18:49.704Z,80.30
2023-01-10T14:26:57.576Z,80.30
2023-01-10T14:35:12.296Z,80.40
2023-01-10T14:43:21.236Z,80.80
2023-01-10T14:51:32.651Z,81.40
2023-01-10T14:59:39.956Z,81.50
2023-01-10T15:07:51.798Z,81.80
2023-01-10T15:15:57.735Z,82.20
2023-01-10T15:24:33.239Z,82.80
2023-01-10T15:32:42.685Z,83.40
2023-01-10T15:40:58.862Z,84.00
2023-01-10T15:49:09.184Z,84.40
2023-01-10T15:57:29.794Z,84.60
2023-01-10T16:05:35.169Z,85.30
2023-01-10T16:13:43.282Z,85.00
2023-01-10T16:21:57.755Z,85.50
2023-01-10T16:30:05.896Z,85.30
2023-01-10T16:38:13.871Z,85.80
2023-01-10T16:46:22.662Z,86.00
2023-01-10T16:54:28.524Z,86.60
2023-01-10T17:02:36.629Z,87.00
2023-01-10T17:10:43.497Z,87.00
2023-01-10T17:18:51.736Z,87.40
2023-01-10T17:26:57.250Z,88.00
2023-01-10T17:35:05.313Z,88.10
2023-01-10T17:43:11.268Z,88.20
2023-01-10T17:51:19.330Z,88.70
2023-01-10T17:59:26.581Z,89.00
2023-01-10T18:07:34.699Z,88.90
2023-01-10T18:15:52.568Z,89.40
2023-01-10T18:24:02.035Z,90.10
2023-01-10T18:32:07.803Z,90.00
2023-01-10T18:40:19.421Z,89.70
2023-01-10T18:48:26.050Z,89.90
2023-01-10T18:56:34.089Z,89.80
2023-01-10T19:04:43.954Z,89.80
2023-01-10T19:12:52.477Z,90.00
2023-01-10T19:20:57.999Z,89.30
2023-01-10T19:29:07.775Z,89.90
2023-01-10T19:37:15.504Z,89.40
2023-01-10T19:45:24.645Z,90.00
2023-01-10T19:53:33.113Z,90.10
2023-01-10T20:01:48.509Z,90.00
2023-01-10T20:09:54.107Z,89.40
2023-01-10T20:18:05.292Z,89.30
2023-01-10T20:26:17.284Z,89.40
2023-01-10T20:34:26.039Z,89.70
2023-01-10T20:42:32.655Z,89.30
2023-01-10T20:50:43.859Z,89.10
2023-01-10T20:58:50.282Z,89.20
2023-01-10T21:06:58.839Z,89.00
2023-01-10T21:15:04.448Z,88.80
2023-01-10T21:23:13.073Z,88.50
2023-01-10T21:31:21.463Z,88.50
2023-01-10T21:39:29.956Z,88.20
2023-01-10T21:47:36.496Z,89.00
2023-01-10T21:55:46.591Z,90.20
2023-01-10T22:03:52.279Z,90.00
2023-01-10T22:12:00.594Z,89.00
2023-01-10T22:20:06.179Z,89.00
2023-01-10T22:28:15.699Z,88.80
2023-01-10T22:36:22.180Z,89.70
2023-01-10T22:44:30.496Z,89.50
2023-01-10T22:52:36.002Z,89.20
2023-01-10T23:00:44.463Z,88.90
2023-01-10T23:08:50.674Z,89.00
2023-01-10T23:16:59.406Z,90.10
2023-01-10T23:25:04.774Z,89.50
2023-01-10T23:33:12.729Z,90.00
2023-01-10T23:41:21.272Z,89.60
2023-01-10T23:49:29.323Z,89.00
2023-01-10T23:57:34.587Z,88.60
